Date,TemperatureHighF,TemperatureAvgF,TemperatureLowF,DewpointHighF,DewpointAvgF,DewpointLowF,HumidityHigh,HumidityAvg,HumidityLow,PressureMaxIn,PressureMinIn,WindSpeedMaxMPH,WindSpeedAvgMPH,GustSpeedMaxMPH,PrecipitationSumIn
2013-3-1,28.9,26.0,23.7,20.8,16.1,11.9,76,66,54,30.21,30.03,18,9,18,0.00
2013-3-2,30.2,24.3,18.3,15.6,13.2,9.5,76,62,50,30.18,30.12,11,6,12,0.00
2013-3-3,39.9,23.8,11.3,15.2,9.6,5.8,84,56,33,30.15,30.06,9,4,11,0.34
2013-3-4,51.6,25.0,10.9,17.4,8.3,3.6,83,53,24,30.21,30.12,6,2,8,0.00
2013-3-5,41.0,26.4,13.5,22.1,15.3,6.4,84,65,40,30.21,29.91,20,8,22,0.00
2013-3-6,44.8,31.9,26.1,26.2,22.5,20.3,88,70,42,30.27,29.97,17,5,17,0.00
2013-3-7,41.5,31.3,21.2,30.5,20.7,10.8,97,67,40,30.44,30.24,11,3,13,0.00
2013-3-8,47.7,31.6,16.7,27.5,18.3,10.7,87,61,32,30.56,30.41,6,1,6,0.00
2013-3-9,45.7,35.8,25.5,28.1,23.1,20.2,88,61,42,30.47,30.03,17,7,20,0.00
2013-3-10,57.7,49.4,38.7,39.2,32.6,26.1,78,53,41,30.06,29.76,24,7,24,0.00
2013-3-11,54.3,47.6,36.0,49.3,40.7,28.3,98,79,47,29.79,29.47,20,9,24,0.37
2013-3-12,41.7,34.0,28.9,31.1,24.2,17.7,86,68,42,29.94,29.71,21,7,21,0.00
2013-3-13,35.6,28.7,23.0,23.3,13.4,7.5,79,53,32,30.27,29.88,18,6,22,0.00
2013-3-14,45.1,28.2,21.7,18.1,12.2,8.4,71,52,29,30.30,30.12,11,3,13,0.00
2013-3-15,42.8,35.1,30.0,31.5,26.1,13.9,92,70,49,30.12,29.88,10,3,10,0.00
2013-3-16,37.8,29.4,24.4,31.2,20.7,14.1,94,71,46,30.09,29.85,14,6,14,0.00
2013-3-17,43.7,26.6,14.4,20.1,8.9,2.8,87,50,23,30.36,30.06,15,7,15,0.00
2013-3-18,34.9,28.3,19.0,33.5,19.8,6.7,98,71,48,30.27,29.59,21,8,21,0.04
2013-3-19,34.3,26.2,21.9,29.1,15.1,7.3,82,63,43,29.97,29.62,25,8,26,0.00
2013-3-20,34.3,24.2,15.6,15.6,8.6,5.6,66,51,36,30.00,29.88,15,5,15,0.00
2013-3-21,33.8,25.1,15.4,21.0,14.5,6.5,81,64,52,30.00,29.88,17,5,17,0.00
2013-3-22,41.5,30.3,24.4,23.6,14.9,10.5,79,53,39,30.09,29.94,13,6,13,0.00
2013-3-23,39.7,31.6,23.9,22.9,18.5,14.5,77,59,41,30.18,30.06,8,3,10,0.00
2013-3-24,39.0,29.5,21.7,25.4,19.9,15.2,90,69,40,30.12,29.74,21,8,21,5.39
2013-3-25,39.7,34.0,30.4,26.7,22.0,18.3,71,61,49,29.97,29.68,28,13,28,0.00
2013-3-26,50.2,36.9,31.6,30.5,25.5,21.3,82,64,39,30.18,29.94,10,4,10,0.00
2013-3-27,51.6,38.0,28.6,26.4,22.3,19.1,80,55,31,30.24,30.12,15,4,15,0.00
2013-3-28,57.9,40.4,28.9,25.2,21.0,16.5,77,49,25,30.33,30.24,12,4,13,0.00
2013-3-29,60.4,41.6,26.6,24.2,19.1,12.9,70,44,22,30.36,30.24,8,2,9,0.00
2013-3-30,57.6,43.3,25.0,25.5,19.5,11.9,81,43,17,30.30,29.94,16,5,17,0.00
2013-3-31,61.0,46.7,39.0,42.3,31.3,24.5,90,57,30,29.94,29.65,15,6,17,0.00